sensor_id;sensor_type;location;lat;lon;timestamp;temperature;humidity
64599;SHT31;51008;51.504;11.548;2023-08-01T00:03:21;16.04;98.81
64599;SHT31;51008;51.504;11.548;2023-08-01T00:08:22;16.08;98.86
64599;SHT31;51008;51.504;11.548;2023-08-01T00:13:23;16.08;98.99
64599;SHT31;51008;51.504;11.548;2023-08-01T00:18:24;16.11;98.71
64599;SHT31;51008;51.504;11.548;2023-08-01T00:23:25;16.11;98.60
64599;SHT31;51008;51.504;11.548;2023-08-01T00:28:26;16.12;98.89
64599;SHT31;51008;51.504;11.548;2023-08-01T00:33:27;16.11;98.67
64599;SHT31;51008;51.504;11.548;2023-08-01T00:38:29;16.11;98.82
64599;SHT31;51008;51.504;11.548;2023-08-01T00:43:30;16.12;98.35
64599;SHT31;51008;51.504;11.548;2023-08-01T00:48:31;16.13;98.84
64599;SHT31;51008;51.504;11.548;2023-08-01T00:53:33;16.08;98.68
64599;SHT31;51008;51.504;11.548;2023-08-01T00:58:35;16.11;98.69
64599;SHT31;51008;51.504;11.548;2023-08-01T01:03:36;16.05;98.57
64599;SHT31;51008;51.504;11.548;2023-08-01T01:08:38;16.11;98.58
64599;SHT31;51008;51.504;11.548;2023-08-01T01:13:40;16.09;98.55
64599;SHT31;51008;51.504;11.548;2023-08-01T01:18:41;16.11;98.26
64599;SHT31;51008;51.504;11.548;2023-08-01T01:23:42;16.11;98.28
64599;SHT31;51008;51.504;11.548;2023-08-01T01:28:44;16.15;97.94
64599;SHT31;51008;51.504;11.548;2023-08-01T01:33:45;16.13;98.39
64599;SHT31;51008;51.504;11.548;2023-08-01T01:38:47;16.09;98.46
64599;SHT31;51008;51.504;11.548;2023-08-01T01:43:48;16.08;98.88
64599;SHT31;51008;51.504;11.548;2023-08-01T01:48:49;16.08;98.98
64599;SHT31;51008;51.504;11.548;2023-08-01T01:53:50;16.08;98.61
64599;SHT31;51008;51.504;11.548;2023-08-01T01:58:51;16.06;98.96
64599;SHT31;51008;51.504;11.548;2023-08-01T02:03:52;16.06;98.89
64599;SHT31;51008;51.504;11.548;2023-08-01T02:08:54;16.08;98.50
64599;SHT31;51008;51.504;11.548;2023-08-01T02:13:56;16.08;98.89
64599;SHT31;51008;51.504;11.548;2023-08-01T02:18:57;16.11;98.64
64599;SHT31;51008;51.504;11.548;2023-08-01T02:23:58;16.08;99.18
64599;SHT31;51008;51.504;11.548;2023-08-01T02:28:59;16.06;99.26
64599;SHT31;51008;51.504;11.548;2023-08-01T02:34:00;16.08;99.09
64599;SHT31;51008;51.504;11.548;2023-08-01T02:39:01;16.12;98.73
64599;SHT31;51008;51.504;11.548;2023-08-01T02:44:02;16.12;98.91
64599;SHT31;51008;51.504;11.548;2023-08-01T02:49:04;16.19;98.93
64599;SHT31;51008;51.504;11.548;2023-08-01T02:54:04;16.16;99.34
64599;SHT31;51008;51.504;11.548;2023-08-01T02:59:06;16.11;99.28
64599;SHT31;51008;51.504;11.548;2023-08-01T03:04:07;16.12;99.05
64599;SHT31;51008;51.504;11.548;2023-08-01T03:09:08;16.13;99.30
64599;SHT31;51008;51.504;11.548;2023-08-01T03:14:09;16.13;98.69
64599;SHT31;51008;51.504;11.548;2023-08-01T03:19:10;16.18;98.19
64599;SHT31;51008;51.504;11.548;2023-08-01T03:24:11;16.23;98.18
64599;SHT31;51008;51.504;11.548;2023-08-01T03:29:12;16.22;98.07
64599;SHT31;51008;51.504;11.548;2023-08-01T03:34:13;16.18;98.46
64599;SHT31;51008;51.504;11.548;2023-08-01T03:39:14;16.18;98.39
64599;SHT31;51008;51.504;11.548;2023-08-01T03:44:15;16.15;99.00
64599;SHT31;51008;51.504;11.548;2023-08-01T03:49:16;16.11;98.98
64599;SHT31;51008;51.504;11.548;2023-08-01T03:54:17;16.15;98.96
64599;SHT31;51008;51.504;11.548;2023-08-01T03:59:18;16.15;99.00
64599;SHT31;51008;51.504;11.548;2023-08-01T04:04:19;16.15;99.03
64599;SHT31;51008;51.504;11.548;2023-08-01T04:09:20;16.13;99.29
64599;SHT31;51008;51.504;11.548;2023-08-01T04:14:21;16.09;99.48
64599;SHT31;51008;51.504;11.548;2023-08-01T04:19:22;16.05;99.58
64599;SHT31;51008;51.504;11.548;2023-08-01T04:24:23;16.06;99.71
64599;SHT31;51008;51.504;11.548;2023-08-01T04:29:24;16.01;99.91
64599;SHT31;51008;51.504;11.548;2023-08-01T04:34:25;16.00;99.99
64599;SHT31;51008;51.504;11.548;2023-08-01T04:39:26;15.97;99.99
64599;SHT31;51008;51.504;11.548;2023-08-01T04:44:27;15.98;99.99
64599;SHT31;51008;51.504;11.548;2023-08-01T04:49:28;15.94;99.99
64599;SHT31;51008;51.504;11.548;2023-08-01T04:54:29;15.97;99.99
64599;SHT31;51008;51.504;11.548;2023-08-01T04:59:30;15.97;99.99
64599;SHT31;51008;51.504;11.548;2023-08-01T05:04:31;16.00;99.99
64599;SHT31;51008;51.504;11.548;2023-08-01T05:09:33;15.98;99.99
64599;SHT31;51008;51.504;11.548;2023-08-01T05:14:34;16.02;99.99
64599;SHT31;51008;51.504;11.548;2023-08-01T05:19:35;16.06;99.89
64599;SHT31;51008;51.504;11.548;2023-08-01T05:24:36;16.09;99.86
64599;SHT31;51008;51.504;11.548;2023-08-01T05:29:37;16.11;99.99
64599;SHT31;51008;51.504;11.548;2023-08-01T05:34:38;16.08;99.99
64599;SHT31;51008;51.504;11.548;2023-08-01T05:39:39;16.09;99.99
64599;SHT31;51008;51.504;11.548;2023-08-01T05:44:40;16.12;99.99
64599;SHT31;51008;51.504;11.548;2023-08-01T05:49:41;16.19;99.99
64599;SHT31;51008;51.504;11.548;2023-08-01T05:54:42;16.19;99.99
64599;SHT31;51008;51.504;11.548;2023-08-01T05:59:43;16.19;99.99
64599;SHT31;51008;51.504;11.548;2023-08-01T06:04:44;16.19;99.99
64599;SHT31;51008;51.504;11.548;2023-08-01T06:09:45;16.23;99.82
64599;SHT31;51008;51.504;11.548;2023-08-01T06:14:47;16.23;99.46
64599;SHT31;51008;51.504;11.548;2023-08-01T06:19:48;16.26;99.66
64599;SHT31;51008;51.504;11.548;2023-08-01T06:24:49;16.25;99.81
64599;SHT31;51008;51.504;11.548;2023-08-01T06:29:51;16.23;99.99
64599;SHT31;51008;51.504;11.548;2023-08-01T06:34:52;16.21;99.99
64599;SHT31;51008;51.504;11.548;2023-08-01T06:39:54;16.19;99.99
64599;SHT31;51008;51.504;11.548;2023-08-01T06:44:56;16.16;99.86
64599;SHT31;51008;51.504;11.548;2023-08-01T06:49:57;16.11;99.99
64599;SHT31;51008;51.504;11.548;2023-08-01T06:54:58;16.05;99.99
64599;SHT31;51008;51.504;11.548;2023-08-01T06:59:59;16.06;99.84
64599;SHT31;51008;51.504;11.548;2023-08-01T07:05:00;16.08;99.90
64599;SHT31;51008;51.504;11.548;2023-08-01T07:10:01;16.11;99.59
64599;SHT31;51008;51.504;11.548;2023-08-01T07:15:03;16.21;99.59
64599;SHT31;51008;51.504;11.548;2023-08-01T07:20:04;16.16;99.11
64599;SHT31;51008;51.504;11.548;2023-08-01T07:25:05;16.12;98.91
64599;SHT31;51008;51.504;11.548;2023-08-01T07:30:07;16.06;99.06
64599;SHT31;51008;51.504;11.548;2023-08-01T07:35:09;16.18;98.54
64599;SHT31;51008;51.504;11.548;2023-08-01T07:40:10;16.22;98.63
64599;SHT31;51008;51.504;11.548;2023-08-01T07:45:11;16.23;98.59
64599;SHT31;51008;51.504;11.548;2023-08-01T07:50:12;16.28;98.85
64599;SHT31;51008;51.504;11.548;2023-08-01T07:55:14;16.30;99.06
64599;SHT31;51008;51.504;11.548;2023-08-01T08:00:16;16.39;99.04
64599;SHT31;51008;51.504;11.548;2023-08-01T08:05:17;16.43;98.86
64599;SHT31;51008;51.504;11.548;2023-08-01T08:10:18;16.21;99.63
64599;SHT31;51008;51.504;11.548;2023-08-01T08:15:20;16.39;99.34
64599;SHT31;51008;51.504;11.548;2023-08-01T08:20:21;16.36;98.93
64599;SHT31;51008;51.504;11.548;2023-08-01T08:25:22;16.63;99.45
64599;SHT31;51008;51.504;11.548;2023-08-01T08:30:23;16.83;98.14
64599;SHT31;51008;51.504;11.548;2023-08-01T08:35:24;16.91;98.34
64599;SHT31;51008;51.504;11.548;2023-08-01T08:40:25;16.95;98.36
64599;SHT31;51008;51.504;11.548;2023-08-01T08:45:28;17.37;97.28
64599;SHT31;51008;51.504;11.548;2023-08-01T08:50:30;17.78;96.19
64599;SHT31;51008;51.504;11.548;2023-08-01T08:55:32;18.09;96.46
64599;SHT31;51008;51.504;11.548;2023-08-01T09:00:38;17.92;94.40
64599;SHT31;51008;51.504;11.548;2023-08-01T09:05:49;18.05;94.28
64599;SHT31;51008;51.504;11.548;2023-08-01T09:10:50;18.09;93.46
64599;SHT31;51008;51.504;11.548;2023-08-01T09:15:51;18.46;94.12
64599;SHT31;51008;51.504;11.548;2023-08-01T09:20:53;18.54;92.74
64599;SHT31;51008;51.504;11.548;2023-08-01T09:25:54;18.92;91.60
64599;SHT31;51008;51.504;11.548;2023-08-01T09:30:56;19.19;90.43
64599;SHT31;51008;51.504;11.548;2023-08-01T09:35:57;19.36;89.47
64599;SHT31;51008;51.504;11.548;2023-08-01T09:40:58;19.29;88.20
64599;SHT31;51008;51.504;11.548;2023-08-01T09:45:59;19.19;88.00
64599;SHT31;51008;51.504;11.548;2023-08-01T09:56:09;19.05;87.28
64599;SHT31;51008;51.504;11.548;2023-08-01T10:01:10;18.81;87.59
64599;SHT31;51008;51.504;11.548;2023-08-01T10:06:16;18.84;88.59
64599;SHT31;51008;51.504;11.548;2023-08-01T10:11:21;18.84;87.58
64599;SHT31;51008;51.504;11.548;2023-08-01T10:16:23;19.03;87.52
64599;SHT31;51008;51.504;11.548;2023-08-01T10:21:25;19.16;85.56
64599;SHT31;51008;51.504;11.548;2023-08-01T10:26:27;19.23;85.13
64599;SHT31;51008;51.504;11.548;2023-08-01T10:31:28;19.41;84.29
64599;SHT31;51008;51.504;11.548;2023-08-01T10:36:29;19.86;83.65
64599;SHT31;51008;51.504;11.548;2023-08-01T10:41:32;20.44;80.66
64599;SHT31;51008;51.504;11.548;2023-08-01T10:51:48;21.95;76.81
64599;SHT31;51008;51.504;11.548;2023-08-01T10:56:51;22.02;74.80
64599;SHT31;51008;51.504;11.548;2023-08-01T11:01:52;21.78;73.05
64599;SHT31;51008;51.504;11.548;2023-08-01T11:06:55;21.10;72.59
64599;SHT31;51008;51.504;11.548;2023-08-01T11:11:57;21.06;73.71
64599;SHT31;51008;51.504;11.548;2023-08-01T11:16:59;21.05;76.36
64599;SHT31;51008;51.504;11.548;2023-08-01T11:22:09;21.69;72.60
64599;SHT31;51008;51.504;11.548;2023-08-01T11:27:10;21.91;72.43
64599;SHT31;51008;51.504;11.548;2023-08-01T11:32:11;22.40;70.66
64599;SHT31;51008;51.504;11.548;2023-08-01T11:37:14;22.89;66.18
64599;SHT31;51008;51.504;11.548;2023-08-01T11:42:16;22.29;69.35
64599;SHT31;51008;51.504;11.548;2023-08-01T11:47:18;22.29;69.48
64599;SHT31;51008;51.504;11.548;2023-08-01T11:52:27;22.47;68.12
64599;SHT31;51008;51.504;11.548;2023-08-01T11:57:28;23.10;69.91
64599;SHT31;51008;51.504;11.548;2023-08-01T12:02:29;23.36;66.99
64599;SHT31;51008;51.504;11.548;2023-08-01T12:07:30;23.54;66.31
64599;SHT31;51008;51.504;11.548;2023-08-01T12:12:31;23.64;65.15
64599;SHT31;51008;51.504;11.548;2023-08-01T12:17:32;23.53;64.94
64599;SHT31;51008;51.504;11.548;2023-08-01T12:22:33;23.34;63.24
64599;SHT31;51008;51.504;11.548;2023-08-01T12:27:35;22.64;64.42
64599;SHT31;51008;51.504;11.548;2023-08-01T12:32:36;22.08;66.16
64599;SHT31;51008;51.504;11.548;2023-08-01T12:37:37;22.50;67.23
64599;SHT31;51008;51.504;11.548;2023-08-01T12:42:38;21.64;67.56
64599;SHT31;51008;51.504;11.548;2023-08-01T12:47:39;21.68;68.26
64599;SHT31;51008;51.504;11.548;2023-08-01T12:52:40;21.73;67.54
64599;SHT31;51008;51.504;11.548;2023-08-01T12:57:41;21.47;69.87
64599;SHT31;51008;51.504;11.548;2023-08-01T13:02:42;21.88;70.28
64599;SHT31;51008;51.504;11.548;2023-08-01T13:07:43;21.59;68.09
64599;SHT31;51008;51.504;11.548;2023-08-01T13:12:44;22.39;67.02
64599;SHT31;51008;51.504;11.548;2023-08-01T13:17:45;23.07;65.07
64599;SHT31;51008;51.504;11.548;2023-08-01T13:22:48;23.26;65.06
64599;SHT31;51008;51.504;11.548;2023-08-01T13:27:50;23.20;65.30
64599;SHT31;51008;51.504;11.548;2023-08-01T13:32:51;23.37;62.17
64599;SHT31;51008;51.504;11.548;2023-08-01T13:37:52;23.17;59.33
64599;SHT31;51008;51.504;11.548;2023-08-01T13:42:53;23.33;61.44
64599;SHT31;51008;51.504;11.548;2023-08-01T13:47:54;23.81;61.41
64599;SHT31;51008;51.504;11.548;2023-08-01T13:52:55;22.79;61.60
64599;SHT31;51008;51.504;11.548;2023-08-01T13:57:56;21.61;65.14
64599;SHT31;51008;51.504;11.548;2023-08-01T14:02:57;21.41;66.53
64599;SHT31;51008;51.504;11.548;2023-08-01T14:07:58;21.36;67.67
64599;SHT31;51008;51.504;11.548;2023-08-01T14:12:59;21.62;68.64
64599;SHT31;51008;51.504;11.548;2023-08-01T14:18:00;22.14;66.83
64599;SHT31;51008;51.504;11.548;2023-08-01T14:23:01;22.72;64.34
64599;SHT31;51008;51.504;11.548;2023-08-01T14:28:02;23.13;65.25
64599;SHT31;51008;51.504;11.548;2023-08-01T14:33:05;23.55;63.33
64599;SHT31;51008;51.504;11.548;2023-08-01T14:38:06;23.31;62.27
64599;SHT31;51008;51.504;11.548;2023-08-01T14:43:07;22.23;64.87
64599;SHT31;51008;51.504;11.548;2023-08-01T14:48:08;22.08;68.12
64599;SHT31;51008;51.504;11.548;2023-08-01T14:53:09;21.71;74.24
64599;SHT31;51008;51.504;11.548;2023-08-01T14:58:10;21.81;75.28
64599;SHT31;51008;51.504;11.548;2023-08-01T15:03:11;21.91;73.52
64599;SHT31;51008;51.504;11.548;2023-08-01T15:08:12;21.26;71.84
64599;SHT31;51008;51.504;11.548;2023-08-01T15:13:13;20.68;73.55
64599;SHT31;51008;51.504;11.548;2023-08-01T15:18:14;20.10;72.79
64599;SHT31;51008;51.504;11.548;2023-08-01T15:23:15;18.96;81.62
64599;SHT31;51008;51.504;11.548;2023-08-01T15:28:16;18.47;84.65
64599;SHT31;51008;51.504;11.548;2023-08-01T15:33:17;18.65;84.12
64599;SHT31;51008;51.504;11.548;2023-08-01T15:38:18;18.89;84.20
64599;SHT31;51008;51.504;11.548;2023-08-01T15:43:20;18.92;79.84
64599;SHT31;51008;51.504;11.548;2023-08-01T15:48:21;19.15;79.82
64599;SHT31;51008;51.504;11.548;2023-08-01T15:53:22;19.29;77.40
64599;SHT31;51008;51.504;11.548;2023-08-01T15:58:23;19.65;77.26
64599;SHT31;51008;51.504;11.548;2023-08-01T16:03:25;19.82;74.73
64599;SHT31;51008;51.504;11.548;2023-08-01T16:08:26;19.92;74.68
64599;SHT31;51008;51.504;11.548;2023-08-01T16:13:27;20.09;75.92
64599;SHT31;51008;51.504;11.548;2023-08-01T16:18:28;19.74;74.63
64599;SHT31;51008;51.504;11.548;2023-08-01T16:23:29;19.86;74.77
64599;SHT31;51008;51.504;11.548;2023-08-01T16:28:30;19.55;75.40
64599;SHT31;51008;51.504;11.548;2023-08-01T16:33:32;19.34;76.13
64599;SHT31;51008;51.504;11.548;2023-08-01T16:38:33;19.27;76.54
64599;SHT31;51008;51.504;11.548;2023-08-01T16:43:34;19.26;77.09
64599;SHT31;51008;51.504;11.548;2023-08-01T16:48:35;19.05;77.00
64599;SHT31;51008;51.504;11.548;2023-08-01T16:53:36;18.72;78.27
64599;SHT31;51008;51.504;11.548;2023-08-01T16:58:37;18.78;78.09
64599;SHT31;51008;51.504;11.548;2023-08-01T17:03:38;18.72;78.83
64599;SHT31;51008;51.504;11.548;2023-08-01T17:08:39;18.40;79.88
64599;SHT31;51008;51.504;11.548;2023-08-01T17:13:40;18.25;80.81
64599;SHT31;51008;51.504;11.548;2023-08-01T17:18:41;18.49;80.65
64599;SHT31;51008;51.504;11.548;2023-08-01T17:23:42;18.81;79.31
64599;SHT31;51008;51.504;11.548;2023-08-01T17:28:43;19.08;79.29
64599;SHT31;51008;51.504;11.548;2023-08-01T17:33:44;19.18;78.40
64599;SHT31;51008;51.504;11.548;2023-08-01T17:38:45;19.37;78.27
64599;SHT31;51008;51.504;11.548;2023-08-01T17:43:46;19.23;78.07
64599;SHT31;51008;51.504;11.548;2023-08-01T17:48:48;19.19;77.63
64599;SHT31;51008;51.504;11.548;2023-08-01T17:53:49;18.99;75.85
64599;SHT31;51008;51.504;11.548;2023-08-01T17:58:50;18.96;75.19
64599;SHT31;51008;51.504;11.548;2023-08-01T18:03:51;18.77;74.61
64599;SHT31;51008;51.504;11.548;2023-08-01T18:08:52;18.84;74.28
64599;SHT31;51008;51.504;11.548;2023-08-01T18:13:53;18.84;72.76
64599;SHT31;51008;51.504;11.548;2023-08-01T18:18:54;18.74;71.61
64599;SHT31;51008;51.504;11.548;2023-08-01T18:23:55;18.68;71.45
64599;SHT31;51008;51.504;11.548;2023-08-01T18:28:56;18.56;72.82
64599;SHT31;51008;51.504;11.548;2023-08-01T18:33:57;18.44;73.54
64599;SHT31;51008;51.504;11.548;2023-08-01T18:38:59;18.23;73.95
64599;SHT31;51008;51.504;11.548;2023-08-01T18:44:00;18.01;74.99
64599;SHT31;51008;51.504;11.548;2023-08-01T18:49:01;17.70;77.16
64599;SHT31;51008;51.504;11.548;2023-08-01T18:54:02;17.43;78.85
64599;SHT31;51008;51.504;11.548;2023-08-01T18:59:03;17.15;80.33
64599;SHT31;51008;51.504;11.548;2023-08-01T19:04:04;16.92;81.50
64599;SHT31;51008;51.504;11.548;2023-08-01T19:09:05;16.71;82.21
64599;SHT31;51008;51.504;11.548;2023-08-01T19:14:06;16.59;83.15
64599;SHT31;51008;51.504;11.548;2023-08-01T19:19:07;16.55;83.65
64599;SHT31;51008;51.504;11.548;2023-08-01T19:24:08;16.42;84.13
64599;SHT31;51008;51.504;11.548;2023-08-01T19:29:09;16.28;84.47
64599;SHT31;51008;51.504;11.548;2023-08-01T19:34:10;16.12;84.53
64599;SHT31;51008;51.504;11.548;2023-08-01T19:39:11;16.00;84.66
64599;SHT31;51008;51.504;11.548;2023-08-01T19:44:12;15.88;84.89
64599;SHT31;51008;51.504;11.548;2023-08-01T19:49:13;15.83;85.37
64599;SHT31;51008;51.504;11.548;2023-08-01T19:54:14;15.68;85.29
64599;SHT31;51008;51.504;11.548;2023-08-01T19:59:16;15.64;85.72
64599;SHT31;51008;51.504;11.548;2023-08-01T20:04:17;15.53;85.85
64599;SHT31;51008;51.504;11.548;2023-08-01T20:09:18;15.46;86.27
64599;SHT31;51008;51.504;11.548;2023-08-01T20:14:19;15.36;86.43
64599;SHT31;51008;51.504;11.548;2023-08-01T20:19:20;15.25;87.27
64599;SHT31;51008;51.504;11.548;2023-08-01T20:24:22;15.19;87.40
64599;SHT31;51008;51.504;11.548;2023-08-01T20:29:23;15.19;87.61
64599;SHT31;51008;51.504;11.548;2023-08-01T20:34:24;15.12;87.97
64599;SHT31;51008;51.504;11.548;2023-08-01T20:39:25;15.07;88.42
64599;SHT31;51008;51.504;11.548;2023-08-01T20:44:26;14.99;88.65
64599;SHT31;51008;51.504;11.548;2023-08-01T20:49:27;14.99;89.01
64599;SHT31;51008;51.504;11.548;2023-08-01T20:54:28;14.98;89.30
64599;SHT31;51008;51.504;11.548;2023-08-01T20:59:29;14.99;89.56
64599;SHT31;51008;51.504;11.548;2023-08-01T21:04:30;14.99;89.82
64599;SHT31;51008;51.504;11.548;2023-08-01T21:09:31;15.02;89.85
64599;SHT31;51008;51.504;11.548;2023-08-01T21:14:33;15.05;89.84
64599;SHT31;51008;51.504;11.548;2023-08-01T21:19:34;14.99;90.19
64599;SHT31;51008;51.504;11.548;2023-08-01T21:24:35;14.92;90.28
64599;SHT31;51008;51.504;11.548;2023-08-01T21:29:36;14.80;90.51
64599;SHT31;51008;51.504;11.548;2023-08-01T21:34:37;14.74;90.97
64599;SHT31;51008;51.504;11.548;2023-08-01T21:39:38;14.79;91.08
64599;SHT31;51008;51.504;11.548;2023-08-01T21:44:39;14.81;91.07
64599;SHT31;51008;51.504;11.548;2023-08-01T21:49:40;14.87;91.08
64599;SHT31;51008;51.504;11.548;2023-08-01T21:54:41;14.95;90.88
64599;SHT31;51008;51.504;11.548;2023-08-01T21:59:42;14.98;90.85
64599;SHT31;51008;51.504;11.548;2023-08-01T22:04:43;15.02;90.65
64599;SHT31;51008;51.504;11.548;2023-08-01T22:09:44;15.04;90.69
64599;SHT31;51008;51.504;11.548;2023-08-01T22:14:46;15.05;90.83
64599;SHT31;51008;51.504;11.548;2023-08-01T22:19:47;15.05;90.79
64599;SHT31;51008;51.504;11.548;2023-08-01T22:24:49;15.05;90.94
64599;SHT31;51008;51.504;11.548;2023-08-01T22:29:50;15.04;91.15
64599;SHT31;51008;51.504;11.548;2023-08-01T22:34:51;15.02;91.22
64599;SHT31;51008;51.504;11.548;2023-08-01T22:39:52;15.09;91.13
64599;SHT31;51008;51.504;11.548;2023-08-01T22:44:53;15.09;91.19
64599;SHT31;51008;51.504;11.548;2023-08-01T22:49:54;15.02;91.29
64599;SHT31;51008;51.504;11.548;2023-08-01T22:54:55;14.95;91.38
64599;SHT31;51008;51.504;11.548;2023-08-01T22:59:56;14.90;91.45
64599;SHT31;51008;51.504;11.548;2023-08-01T23:04:57;14.81;91.77
64599;SHT31;51008;51.504;11.548;2023-08-01T23:10:04;14.74;92.08
64599;SHT31;51008;51.504;11.548;2023-08-01T23:15:06;14.67;92.15
64599;SHT31;51008;51.504;11.548;2023-08-01T23:20:08;14.62;92.38
64599;SHT31;51008;51.504;11.548;2023-08-01T23:25:09;14.60;92.57
64599;SHT31;51008;51.504;11.548;2023-08-01T23:30:10;14.59;92.64
64599;SHT31;51008;51.504;11.548;2023-08-01T23:35:11;14.62;92.70
64599;SHT31;51008;51.504;11.548;2023-08-01T23:40:12;14.59;92.75
64599;SHT31;51008;51.504;11.548;2023-08-01T23:45:13;14.62;92.89
64599;SHT31;51008;51.504;11.548;2023-08-01T23:50:15;14.60;92.88
64599;SHT31;51008;51.504;11.548;2023-08-01T23:55:17;14.59;93.09
